Time;durP1;ratioP1;P1;durP2;ratioP2;P2;SDS_P1;SDS_P2;PMS_P1;PMS_P2;Temp;Humidity;BMP_temperature;BMP_pressure;BME280_temperature;BME280_humidity;BME280_pressure;Samples;Min_cycle;Max_cycle;Signal;HPM_P1;HPM_P2
2021/04/14 00:00:36;;;;;;;6.07;1.80;;;;;;;0.33;84.09;102316.88;115728;1209;62551;-74
2021/04/14 00:03:07;;;;;;;7.33;2.90;;;;;;;0.33;83.40;102319.48;115837;1209;62111;-74
2021/04/14 00:05:37;;;;;;;7.60;2.50;;;;;;;0.32;83.48;102316.03;115824;1209;62519;-74
2021/04/14 00:08:06;;;;;;;10.50;2.07;;;;;;;0.32;84.14;102305.59;115768;1209;63903;-75
2021/04/14 00:10:34;;;;;;;8.40;2.00;;;;;;;0.33;83.83;102309.04;115774;1209;62447;-75
2021/04/14 00:13:03;;;;;;;6.30;1.75;;;;;;;0.31;83.97;102311.71;115808;1209;62397;-74
2021/04/14 00:15:39;;;;;;;5.87;1.83;;;;;;;0.29;83.41;102308.32;115833;1209;62211;-74
2021/04/14 00:18:07;;;;;;;12.47;2.23;;;;;;;0.29;83.64;102307.48;115804;1209;62319;-75
2021/04/14 00:20:34;;;;;;;6.53;1.73;;;;;;;0.27;83.44;102304.93;115797;1209;62441;-74
2021/04/14 00:23:02;;;;;;;6.03;1.57;;;;;;;0.28;84.24;102305.80;115787;1209;62444;-74
2021/04/14 00:25:32;;;;;;;3.60;2.00;;;;;;;0.30;83.91;102298.72;115808;1209;63646;-74
2021/04/14 00:27:59;;;;;;;5.95;1.50;;;;;;;0.33;84.16;102299.44;115802;1209;62432;-74
2021/04/14 00:30:29;;;;;;;6.77;2.20;;;;;;;0.36;84.28;102308.89;115790;1209;62598;-74
2021/04/14 00:32:56;;;;;;;19.83;4.70;;;;;;;0.39;83.96;102304.39;115834;1209;62585;-75
2021/04/14 00:35:25;;;;;;;4.25;1.85;;;;;;;0.45;84.13;102303.27;115840;1209;62837;-75
2021/04/14 00:37:53;;;;;;;3.77;1.53;;;;;;;0.52;84.26;102311.67;115827;1209;62326;-75
2021/04/14 00:40:27;;;;;;;5.23;1.47;;;;;;;0.60;84.65;102313.01;115824;1209;62368;-75
2021/04/14 00:42:55;;;;;;;3.87;1.60;;;;;;;0.68;83.53;102306.58;115790;1209;63555;-76
2021/04/14 00:45:22;;;;;;;6.23;1.77;;;;;;;0.78;83.71;102311.30;115857;1209;61908;-75
2021/04/14 00:47:49;;;;;;;3.37;1.30;;;;;;;0.83;83.73;102307.63;115799;1209;62983;-75
2021/04/14 00:50:22;;;;;;;4.13;1.50;;;;;;;0.88;83.47;102308.27;115805;1209;62377;-74
2021/04/14 00:52:48;;;;;;;2.70;1.10;;;;;;;0.93;83.68;102303.66;115811;1209;62217;-75
2021/04/14 00:55:18;;;;;;;6.90;1.50;;;;;;;1.00;83.50;102310.31;115781;1209;62213;-75
2021/04/14 00:57:45;;;;;;;7.35;1.40;;;;;;;1.05;83.70;102302.25;115822;1209;62351;-75
2021/04/14 01:00:18;;;;;;;2.80;1.23;;;;;;;1.09;82.98;102302.02;115831;1209;63421;-74
2021/04/14 01:02:44;;;;;;;5.83;1.67;;;;;;;1.12;82.75;102299.25;115776;1209;63007;-75
2021/04/14 01:05:13;;;;;;;5.50;1.57;;;;;;;1.14;82.66;102297.41;115847;1209;63199;-75
2021/04/14 01:07:42;;;;;;;3.90;1.57;;;;;;;1.12;82.44;102298.41;115783;1209;62735;-75
2021/04/14 01:10:09;;;;;;;6.70;1.60;;;;;;;1.10;82.04;102305.47;115793;1209;62039;-74
2021/04/14 01:12:36;;;;;;;6.40;1.55;;;;;;;1.04;82.12;102306.60;115807;1209;63633;-73
2021/04/14 01:15:06;;;;;;;5.40;1.40;;;;;;;0.99;82.39;102298.15;115804;1209;62308;-74
2021/04/14 01:17:32;;;;;;;3.90;1.35;;;;;;;0.92;82.76;102292.38;115772;1209;62268;-76
2021/04/14 01:19:59;;;;;;;7.97;2.00;;;;;;;0.88;82.31;102296.05;115800;1209;63197;-75
2021/04/14 01:22:25;;;;;;;3.73;1.43;;;;;;;0.81;82.49;102300.72;115795;1209;62933;-75
2021/04/14 01:24:52;;;;;;;3.90;1.50;;;;;;;0.68;83.11;102281.33;115811;1209;62953;-75
2021/04/14 01:27:18;;;;;;;4.43;1.50;;;;;;;0.68;83.72;102288.30;115807;1209;62707;-76
2021/04/14 01:29:45;;;;;;;3.10;1.10;;;;;;;0.65;83.70;102297.13;115827;1208;62169;-75
2021/04/14 01:32:12;;;;;;;5.17;1.47;;;;;;;0.62;83.32;102284.22;115734;1209;62844;-75
2021/04/14 01:34:38;;;;;;;4.73;1.83;;;;;;;0.57;83.83;102296.63;115861;1209;62738;-75
2021/04/14 01:37:05;;;;;;;6.40;1.95;;;;;;;0.55;83.84;102285.41;115733;1209;62174;-75
2021/04/14 01:39:32;;;;;;;11.50;2.30;;;;;;;0.54;83.92;102291.56;115786;1209;62392;-74
2021/04/14 01:41:59;;;;;;;5.33;1.70;;;;;;;0.53;83.75;102290.72;115810;1209;62452;-76
2021/04/14 01:44:25;;;;;;;7.20;1.77;;;;;;;0.53;83.75;102282.02;115837;1209;63153;-75
2021/04/14 01:46:52;;;;;;;5.60;1.55;;;;;;;0.53;83.58;102289.84;115741;1209;62584;-75
2021/04/14 01:49:18;;;;;;;4.65;1.25;;;;;;;0.51;83.21;102291.68;115799;1209;62461;-76
2021/04/14 01:51:45;;;;;;;6.10;1.30;;;;;;;0.51;83.94;102287.33;115760;1209;62405;-75
2021/04/14 01:54:12;;;;;;;3.00;2.03;;;;;;;0.51;84.07;102295.16;115808;1209;63642;-75
2021/04/14 01:56:40;;;;;;;7.23;1.70;;;;;;;0.51;83.82;102286.45;115974;1209;62199;-75
2021/04/14 01:59:08;;;;;;;4.30;1.70;;;;;;;0.51;83.96;102295.16;115839;1209;62863;-75
2021/04/14 02:01:35;;;;;;;6.33;1.70;;;;;;;0.51;83.74;102292.55;115811;1209;63582;-75
2021/04/14 02:04:01;;;;;;;10.90;2.00;;;;;;;0.52;83.59;102301.23;115784;1209;63123;-75
2021/04/14 02:06:28;;;;;;;6.83;1.77;;;;;;;0.53;83.58;102295.94;115806;1209;62259;-75
2021/04/14 02:08:54;;;;;;;5.63;1.67;;;;;;;0.55;84.42;102299.33;115787;1209;62812;-76
2021/04/14 02:11:21;;;;;;;9.57;1.83;;;;;;;0.60;83.98;102296.50;115803;1209;62196;-75
2021/04/14 02:13:48;;;;;;;3.70;1.50;;;;;;;0.63;84.45;102290.28;115818;1209;62288;-75
2021/04/14 02:16:20;;;;;;;2.57;1.57;;;;;;;0.65;83.96;102299.73;115777;1209;62495;-75
2021/04/14 02:18:49;;;;;;;6.60;1.67;;;;;;;0.67;84.58;102294.45;115830;1209;62468;-75
2021/04/14 02:21:17;;;;;;;4.10;1.40;;;;;;;0.67;84.67;102292.67;115849;1209;62504;-75
2021/04/14 02:23:44;;;;;;;5.83;1.97;;;;;;;0.71;84.04;102301.23;115820;1209;62725;-75
2021/04/14 02:26:15;;;;;;;4.60;1.80;;;;;;;0.71;84.26;102293.39;115747;1209;62580;-74
2021/04/14 02:28:45;;;;;;;6.50;2.50;;;;;;;0.70;83.75;102297.77;115775;1209;62561;-75
2021/04/14 02:31:18;;;;;;;2.80;1.60;;;;;;;0.71;84.22;102289.00;115908;1209;62178;-75
2021/04/14 02:33:45;;;;;;;3.90;1.90;;;;;;;0.68;84.30;102296.13;115829;1209;62720;-75
2021/04/14 02:36:11;;;;;;;2.63;1.07;;;;;;;0.64;83.81;102292.83;115817;1209;61938;-74
2021/04/14 02:38:38;;;;;;;5.15;1.70;;;;;;;0.60;84.02;102294.73;115829;1209;62911;-75
2021/04/14 02:41:05;;;;;;;5.17;2.23;;;;;;;0.59;83.66;102289.56;115801;1209;62380;-74
2021/04/14 02:43:32;;;;;;;4.63;1.43;;;;;;;0.57;83.77;102286.18;115754;1209;62644;-75
2021/04/14 02:45:58;;;;;;;4.13;2.13;;;;;;;0.54;84.57;102281.95;115835;1209;62308;-75
2021/04/14 02:48:25;;;;;;;2.45;1.70;;;;;;;0.53;84.11;102282.02;115846;1209;62421;-75
2021/04/14 02:50:52;;;;;;;3.97;1.50;;;;;;;0.50;83.75;102279.56;115827;1209;63282;-75
2021/04/14 02:53:18;;;;;;;5.67;1.83;;;;;;;0.48;84.24;102281.39;115791;1209;62663;-75
2021/04/14 02:55:45;;;;;;;2.50;1.17;;;;;;;0.46;84.22;102285.84;115809;1209;62272;-75
2021/04/14 02:58:11;;;;;;;5.93;2.13;;;;;;;0.43;84.34;102278.16;115808;1209;62280;-75
2021/04/14 03:00:37;;;;;;;5.80;2.27;;;;;;;0.45;83.85;102276.30;115820;1209;62223;-74
2021/04/14 03:03:04;;;;;;;5.83;1.87;;;;;;;0.48;84.68;102276.17;115762;1209;62359;-75
2021/04/14 03:05:33;;;;;;;4.20;2.10;;;;;;;0.49;84.52;102272.63;115789;1209;62392;-75
2021/04/14 03:08:00;;;;;;;4.90;2.20;;;;;;;0.53;84.33;102274.18;115780;1209;62803;-74
2021/04/14 03:10:29;;;;;;;6.10;2.37;;;;;;;0.57;83.99;102265.29;115810;1209;62324;-75
2021/04/14 03:12:56;;;;;;;4.40;2.00;;;;;;;0.60;84.62;102267.78;115809;1209;62301;-75
2021/04/14 03:15:27;;;;;;;4.45;1.20;;;;;;;0.63;84.70;102270.23;115819;1209;63010;-76
2021/04/14 03:17:54;;;;;;;5.93;1.90;;;;;;;0.66;84.26;102269.23;115845;1209;62244;-75
2021/04/14 03:20:21;;;;;;;8.33;2.70;;;;;;;0.68;83.80;102273.49;115844;1209;62719;-75
2021/04/14 03:22:53;;;;;;;5.77;2.33;;;;;;;0.71;84.19;102270.72;115832;1209;62698;-76
2021/04/14 03:25:22;;;;;;;13.83;2.83;;;;;;;0.73;83.94;102271.50;115839;1209;62173;-75
2021/04/14 03:27:49;;;;;;;4.00;2.00;;;;;;;0.74;84.22;102272.34;115795;1209;62920;-75
2021/04/14 03:30:16;;;;;;;4.57;2.23;;;;;;;0.75;84.03;102268.82;115829;1209;62320;-75
2021/04/14 03:32:43;;;;;;;3.30;2.10;;;;;;;0.77;83.95;102274.82;115856;1209;62422;-75
2021/04/14 03:35:11;;;;;;;5.60;1.40;;;;;;;0.75;84.34;102269.66;115821;1209;62490;-75
2021/04/14 03:37:38;;;;;;;4.30;2.05;;;;;;;0.76;84.34;102266.11;115873;1209;62291;-75
2021/04/14 03:40:06;;;;;;;7.33;2.20;;;;;;;0.77;84.18;102273.05;115759;1209;62993;-75
2021/04/14 03:42:33;;;;;;;7.90;2.30;;;;;;;0.79;83.78;102260.77;115823;1209;62319;-74
2021/04/14 03:45:01;;;;;;;11.50;2.57;;;;;;;0.79;83.86;102273.83;115823;1209;62445;-75
2021/04/14 03:47:28;;;;;;;8.07;2.00;;;;;;;0.80;83.47;102265.05;115758;1209;62388;-75
2021/04/14 03:49:55;;;;;;;4.70;1.90;;;;;;;0.78;84.16;102266.05;115765;1209;62363;-75
2021/04/14 03:52:21;;;;;;;3.87;1.93;;;;;;;0.77;84.18;102267.83;115788;1209;62953;-74
2021/04/14 03:54:48;;;;;;;3.93;2.40;;;;;;;0.74;83.55;102265.34;115794;1209;62397;-75
2021/04/14 03:57:15;;;;;;;8.43;2.60;;;;;;;0.76;84.04;102268.73;115850;1209;62329;-76
2021/04/14 03:59:42;;;;;;;4.53;2.07;;;;;;;0.79;84.24;102275.59;115788;1209;62140;-76
2021/04/14 04:02:09;;;;;;;5.17;2.70;;;;;;;0.78;83.63;102269.50;115829;1209;62448;-75
2021/04/14 04:04:35;;;;;;;6.93;3.03;;;;;;;0.79;83.82;102271.21;115701;1209;62631;-75
2021/04/14 04:07:02;;;;;;;8.00;2.63;;;;;;;0.79;84.18;102273.83;115828;1209;62423;-75
2021/04/14 04:09:35;;;;;;;4.70;2.50;;;;;;;0.77;84.14;102273.05;115382;1209;63770;-76
2021/04/14 04:12:12;;;;;;;4.40;2.00;;;;;;;0.74;84.01;102272.34;114219;1209;64516;-75
2021/04/14 04:14:49;;;;;;;3.47;2.00;;;;;;;0.69;84.43;102267.33;115788;1209;62330;-75
2021/04/14 04:17:21;;;;;;;5.10;2.60;;;;;;;0.67;84.36;102276.16;115798;1207;62894;-75
2021/04/14 04:19:48;;;;;;;8.30;2.40;;;;;;;0.62;84.25;102268.55;115778;1209;64070;-74
2021/04/14 04:22:19;;;;;;;6.67;2.30;;;;;;;0.58;84.32;102278.28;115806;1209;62546;-75
2021/04/14 04:24:48;;;;;;;11.70;3.50;;;;;;;0.55;84.56;102277.56;115860;1209;62309;-75
2021/04/14 04:27:15;;;;;;;6.17;2.00;;;;;;;0.53;84.48;102274.18;115855;1209;62453;-75
2021/04/14 04:29:42;;;;;;;9.03;2.13;;;;;;;0.50;84.42;102275.17;115831;1209;64305;-75
2021/04/14 04:32:09;;;;;;;9.80;2.70;;;;;;;0.47;84.74;102277.06;115828;1209;62652;-75
2021/04/14 04:34:36;;;;;;;6.55;2.65;;;;;;;0.43;85.16;102279.00;115836;1209;62389;-76
2021/04/14 04:37:02;;;;;;;7.55;2.90;;;;;;;0.41;84.94;102280.83;115781;1209;62476;-75
2021/04/14 04:39:29;;;;;;;9.27;3.47;;;;;;;0.42;84.58;102281.67;115783;1209;62256;-75
2021/04/14 04:41:56;;;;;;;8.00;2.80;;;;;;;0.39;85.13;102283.50;115840;1209;62537;-75
2021/04/14 04:44:22;;;;;;;4.73;2.73;;;;;;;0.38;85.93;102284.44;115795;1209;62383;-75
2021/04/14 04:46:49;;;;;;;9.33;3.27;;;;;;;0.38;85.40;102287.05;115763;1209;63206;-76
2021/04/14 04:49:16;;;;;;;8.70;2.90;;;;;;;0.40;85.27;102293.05;115828;1209;62219;-75
2021/04/14 04:51:42;;;;;;;9.00;3.03;;;;;;;0.40;85.50;102300.00;115779;1209;62355;-74
2021/04/14 04:54:10;;;;;;;3.13;1.73;;;;;;;0.38;85.55;102286.17;115770;1209;62647;-74
2021/04/14 04:56:37;;;;;;;6.30;2.33;;;;;;;0.39;85.69;102287.88;115786;1209;62434;-75
2021/04/14 04:59:04;;;;;;;5.50;2.55;;;;;;;0.40;85.83;102295.66;115797;1209;62349;-74
2021/04/14 05:01:30;;;;;;;12.70;3.10;;;;;;;0.45;85.60;102295.44;115693;1209;64083;-74
2021/04/14 05:04:04;;;;;;;11.27;3.50;;;;;;;0.50;85.57;102303.05;115836;1209;62225;-75
2021/04/14 05:06:31;;;;;;;7.27;2.77;;;;;;;0.57;85.43;102301.84;115761;1209;62464;-79
2021/04/14 05:08:57;;;;;;;16.47;3.40;;;;;;;0.68;85.79;102301.35;115763;1209;62514;-74
2021/04/14 05:11:24;;;;;;;6.93;2.20;;;;;;;0.78;85.09;102307.84;115754;1209;62678;-74
2021/04/14 05:13:50;;;;;;;2.37;1.30;;;;;;;0.87;85.39;102304.82;115771;1209;62730;-74
2021/04/14 05:16:17;;;;;;;3.57;2.07;;;;;;;0.95;85.22;102304.44;115741;1209;64234;-73
2021/04/14 05:18:43;;;;;;;6.43;1.80;;;;;;;1.03;84.69;102310.16;115788;1209;62481;-74
2021/04/14 05:21:10;;;;;;;8.63;2.80;;;;;;;1.12;84.44;102311.47;115725;1209;63519;-74
2021/04/14 05:23:37;;;;;;;11.07;3.03;;;;;;;1.22;84.54;102315.34;115822;1209;62341;-73
2021/04/14 05:26:03;;;;;;;5.57;2.50;;;;;;;1.31;83.80;102314.89;115756;1209;63079;-74
2021/04/14 05:28:30;;;;;;;6.93;2.70;;;;;;;1.37;83.71;102318.98;115821;1209;62593;-75
2021/04/14 05:30:56;;;;;;;8.03;1.83;;;;;;;1.41;83.46;102317.91;114968;1209;64260;-74
2021/04/14 05:33:24;;;;;;;8.20;2.47;;;;;;;1.44;83.36;102322.98;115763;1209;62068;-74
2021/04/14 05:35:52;;;;;;;6.50;1.97;;;;;;;1.48;83.13;102328.91;115854;1209;62393;-74
2021/04/14 05:38:18;;;;;;;9.03;2.40;;;;;;;1.49;82.54;102328.84;115678;1209;62139;-75
2021/04/14 05:40:45;;;;;;;4.97;2.37;;;;;;;1.55;83.14;102330.29;115844;1209;62692;-74
2021/04/14 05:43:26;;;;;;;5.47;2.27;;;;;;;1.60;82.88;102330.92;115831;1209;62390;-74
2021/04/14 05:45:56;;;;;;;7.07;2.10;;;;;;;1.65;82.83;102334.14;115826;1209;62285;-75
2021/04/14 05:48:24;;;;;;;5.30;1.57;;;;;;;1.69;82.79;102334.84;115840;1209;62260;-75
2021/04/14 05:50:51;;;;;;;5.13;1.73;;;;;;;1.74;82.60;102330.22;115694;1209;62387;-75
2021/04/14 05:53:20;;;;;;;4.07;2.17;;;;;;;1.82;82.92;102335.91;115877;1209;62097;-75
2021/04/14 05:55:47;;;;;;;5.60;2.00;;;;;;;1.88;82.24;102332.98;115761;1209;63835;-74
2021/04/14 05:58:14;;;;;;;8.87;2.17;;;;;;;1.98;82.17;102330.77;115651;1209;63142;-72
2021/04/14 06:00:40;;;;;;;5.77;2.33;;;;;;;2.06;81.67;102335.58;115804;1209;62622;-74
2021/04/14 06:03:07;;;;;;;7.93;2.17;;;;;;;2.12;81.68;102328.25;115743;1209;64259;-73
2021/04/14 06:05:34;;;;;;;11.60;2.35;;;;;;;2.18;81.39;102340.19;115767;1209;62279;-74
2021/04/14 06:08:00;;;;;;;9.37;3.27;;;;;;;2.26;81.25;102332.78;115800;1209;62386;-73
2021/04/14 06:10:27;;;;;;;4.37;1.90;;;;;;;2.36;81.04;102325.27;115726;1209;62200;-73
2021/04/14 06:12:55;;;;;;;6.73;2.13;;;;;;;2.42;80.90;102333.67;115864;1209;62230;-74
2021/04/14 06:15:28;;;;;;;9.07;3.20;;;;;;;2.49;80.25;102339.43;115848;1209;62365;-74
2021/04/14 06:17:55;;;;;;;6.73;2.77;;;;;;;2.58;80.52;102338.09;115875;1209;62228;-77
2021/04/14 06:20:26;;;;;;;11.25;3.20;;;;;;;2.62;79.79;102342.23;115798;1209;62825;-77
2021/04/14 06:22:53;;;;;;;6.63;2.03;;;;;;;2.72;80.05;102338.20;115816;1209;61856;-78
2021/04/14 06:25:21;;;;;;;7.10;3.33;;;;;;;2.82;79.58;102344.60;115839;1209;62281;-78
2021/04/14 06:28:05;;;;;;;10.25;3.30;;;;;;;2.97;78.69;102342.08;115892;1209;62196;-76
2021/04/14 06:30:37;;;;;;;7.60;2.00;;;;;;;3.11;79.16;102351.81;115878;1209;62682;-76
2021/04/14 06:33:08;;;;;;;6.33;1.80;;;;;;;3.21;78.25;102343.34;115883;1209;62205;-77
2021/04/14 06:35:35;;;;;;;12.03;3.20;;;;;;;3.34;78.28;102342.66;115868;1209;62502;-77
2021/04/14 06:38:05;;;;;;;10.60;2.80;;;;;;;3.48;78.21;102337.44;115867;1209;62284;-77
2021/04/14 06:43:37;;;;;;;7.40;2.23;;;;;;;3.57;76.55;102346.55;115801;1209;62424;-77
2021/04/14 06:46:10;;;;;;;4.33;1.60;;;;;;;3.68;77.77;102344.17;115864;1209;62153;-76
2021/04/14 06:48:46;;;;;;;4.80;1.95;;;;;;;3.75;76.22;102339.41;115816;1209;62834;-76
2021/04/14 06:51:33;;;;;;;8.73;3.03;;;;;;;3.83;75.86;102337.19;115875;1209;62146;-75
2021/04/14 06:54:21;;;;;;;6.33;2.20;;;;;;;3.89;75.83;102336.83;115831;1209;62248;-76
2021/04/14 06:56:59;;;;;;;5.30;2.85;;;;;;;3.91;75.97;102334.95;115891;1209;62141;-76
2021/04/14 06:59:29;;;;;;;8.70;1.90;;;;;;;3.93;76.46;102334.84;115860;1209;63015;-76
2021/04/14 07:02:04;;;;;;;9.47;2.37;;;;;;;3.96;75.66;102337.30;115888;1209;62615;-76
2021/04/14 07:04:43;;;;;;;3.58;1.48;;;;;;;3.92;75.40;102336.63;115847;1209;64393;-75
2021/04/14 07:07:18;;;;;;;6.17;1.87;;;;;;;3.98;75.43;102335.43;115826;1209;62205;-76
2021/04/14 07:09:51;;;;;;;7.93;2.07;;;;;;;4.00;75.32;102329.14;115866;1209;62370;-76
2021/04/14 07:12:21;;;;;;;7.80;2.40;;;;;;;4.07;75.52;102330.45;115830;1209;62951;-75
2021/04/14 07:14:51;;;;;;;8.97;2.17;;;;;;;4.15;73.90;102326.54;115889;1209;62332;-76
2021/04/14 07:17:31;;;;;;;9.87;2.23;;;;;;;4.18;74.31;102326.34;115845;1209;64135;-76
2021/04/14 07:20:14;;;;;;;8.87;3.37;;;;;;;4.21;73.73;102331.42;115797;1209;62239;-76
2021/04/14 07:23:06;;;;;;;7.97;2.40;;;;;;;4.27;73.69;102336.27;115805;1209;64208;-76
2021/04/14 07:25:44;;;;;;;3.33;1.80;;;;;;;4.32;73.56;102331.60;115884;1209;62522;-76
2021/04/14 07:28:26;;;;;;;3.03;1.57;;;;;;;4.37;73.02;102332.16;115829;1209;62223;-76
2021/04/14 07:31:13;;;;;;;3.70;1.40;;;;;;;4.44;73.91;102336.11;115824;1209;64311;-77
2021/04/14 07:33:42;;;;;;;6.33;1.57;;;;;;;4.54;73.35;102336.37;115875;1209;62152;-76
2021/04/14 07:36:27;;;;;;;4.73;1.33;;;;;;;4.58;73.03;102323.89;115848;1209;62773;-77
2021/04/14 07:39:35;;;;;;;7.50;1.85;;;;;;;4.62;73.20;102333.27;115884;1209;62196;-77
2021/04/14 07:42:33;;;;;;;4.87;1.47;;;;;;;4.66;71.53;102326.89;115507;1212;64208;-73
2021/04/14 07:45:21;;;;;;;4.37;1.63;;;;;;;4.71;72.61;102330.06;115412;1215;62488;-76
2021/04/14 07:47:55;;;;;;;3.25;1.10;;;;;;;4.77;71.81;102334.94;115798;1209;62376;-73
2021/04/14 07:50:29;;;;;;;7.65;2.10;;;;;;;4.99;71.83;102326.52;115804;1208;62393;-74
2021/04/14 07:52:57;;;;;;;8.98;1.73;;;;;;;5.29;70.05;102336.87;115874;1209;62331;-74
2021/04/14 07:55:30;;;;;;;3.50;1.00;;;;;;;5.43;69.71;102335.95;115841;1209;62260;-74
2021/04/14 07:58:07;;;;;;;4.00;1.40;;;;;;;5.48;68.95;102331.24;115853;1209;64080;-74
2021/04/14 08:00:40;;;;;;;5.63;2.03;;;;;;;5.67;69.08;102332.63;115862;1209;62359;-74
2021/04/14 08:03:09;;;;;;;3.57;1.20;;;;;;;5.73;68.03;102325.16;115882;1209;62482;-74
2021/04/14 08:05:37;;;;;;;2.75;1.20;;;;;;;5.82;68.14;102323.72;115826;1209;62454;-74
2021/04/14 08:08:18;;;;;;;3.07;0.90;;;;;;;6.02;67.31;102319.75;115840;1209;62586;-77
2021/04/14 08:11:10;;;;;;;4.27;1.50;;;;;;;6.30;65.15;102320.48;115813;1209;62317;-77
2021/04/14 08:13:42;;;;;;;3.83;1.67;;;;;;;6.45;64.99;102315.92;115867;1209;62360;-77
2021/04/14 08:16:18;;;;;;;6.17;1.20;;;;;;;6.57;64.10;102314.20;115844;1209;62376;-77
2021/04/14 08:18:53;;;;;;;8.15;1.50;;;;;;;6.42;62.43;102306.45;115837;1209;62553;-77
2021/04/14 08:21:34;;;;;;;7.37;2.03;;;;;;;6.29;64.08;102305.59;115865;1209;62352;-78
2021/04/14 08:24:24;;;;;;;7.05;1.65;;;;;;;6.08;64.41;102308.80;115839;1209;62535;-75
2021/04/14 08:27:22;;;;;;;6.67;1.80;;;;;;;6.13;66.04;102311.94;115765;1209;62382;-77
2021/04/14 08:30:03;;;;;;;9.93;2.03;;;;;;;6.18;63.10;102319.52;115818;1209;62362;-78
2021/04/14 08:32:34;;;;;;;7.47;1.40;;;;;;;6.20;62.95;102306.25;115874;1209;64228;-78
2021/04/14 08:35:06;;;;;;;6.07;1.33;;;;;;;6.24;62.63;102307.72;115845;1209;62388;-77
2021/04/14 08:37:35;;;;;;;2.17;0.73;;;;;;;6.35;62.29;102299.06;115865;1209;62400;-77
2021/04/14 08:40:26;;;;;;;5.40;1.63;;;;;;;6.58;62.63;102302.72;115837;1209;62450;-77
2021/04/14 08:43:07;;;;;;;7.70;1.65;;;;;;;6.93;60.95;102306.30;115810;1209;64061;-77
2021/04/14 08:45:36;;;;;;;2.53;0.63;;;;;;;7.07;59.17;102302.64;115898;1208;62165;-77
2021/04/14 08:48:10;;;;;;;4.03;0.90;;;;;;;7.07;57.69;102304.44;115860;1209;62274;-77
2021/04/14 08:50:43;;;;;;;4.70;0.83;;;;;;;7.22;58.46;102305.95;115852;1209;62255;-76
2021/04/14 08:53:15;;;;;;;3.27;1.00;;;;;;;7.30;57.03;102308.03;115801;1209;62721;-77
2021/04/14 08:55:42;;;;;;;5.00;0.80;;;;;;;7.14;56.95;102303.06;115913;1209;62909;-77
2021/04/14 08:58:15;;;;;;;4.00;1.00;;;;;;;7.26;58.37;102302.13;115823;1209;63037;-76
2021/04/14 09:00:43;;;;;;;2.87;1.00;;;;;;;7.24;57.78;102305.84;115884;1209;62248;-78
2021/04/14 09:03:14;;;;;;;2.77;0.97;;;;;;;7.11;57.77;102303.27;115842;1209;62285;-78
2021/04/14 09:05:45;;;;;;;2.03;0.90;;;;;;;6.97;57.33;102312.20;115843;1209;62265;-78
2021/04/14 09:08:18;;;;;;;6.80;1.90;;;;;;;6.68;57.36;102301.95;115792;1209;62471;-79
2021/04/14 09:10:54;;;;;;;12.30;1.43;;;;;;;6.50;58.87;102303.25;115859;1209;62803;-78
2021/04/14 09:13:46;;;;;;;2.60;0.75;;;;;;;6.26;59.72;102306.66;115821;1209;62300;-78
2021/04/14 09:16:36;;;;;;;5.90;1.30;;;;;;;6.15;59.63;102297.84;115884;1209;62321;-78
2021/04/14 09:19:08;;;;;;;3.70;0.80;;;;;;;6.33;58.96;102296.53;115862;1209;62248;-77
2021/04/14 09:21:48;;;;;;;2.90;1.03;;;;;;;6.70;59.80;102296.58;115835;1209;62300;-77
2021/04/14 09:25:07;;;;;;;4.75;0.95;;;;;;;7.10;57.51;102289.23;115865;1209;62827;-77
2021/04/14 09:27:36;;;;;;;3.60;1.05;;;;;;;7.27;56.15;102282.71;115678;1209;62259;-78
2021/04/14 09:30:30;;;;;;;4.63;1.57;;;;;;;7.49;56.00;102270.54;115859;1209;62436;-78
2021/04/14 09:33:05;;;;;;;5.70;1.03;;;;;;;7.78;54.53;102275.38;115825;1209;62401;-78
2021/04/14 09:35:32;;;;;;;7.47;1.77;;;;;;;7.91;55.79;102276.14;115841;1209;62131;-78
2021/04/14 09:38:21;;;;;;;5.53;0.93;;;;;;;7.88;52.18;102287.77;115886;1209;62394;-78
2021/04/14 09:40:49;;;;;;;3.33;1.07;;;;;;;7.76;52.52;102281.64;115811;1209;62272;-75
2021/04/14 09:43:37;;;;;;;3.10;0.80;;;;;;;7.43;57.86;102289.48;115858;1209;62224;-76
2021/04/14 09:46:08;;;;;;;2.43;0.80;;;;;;;6.84;62.01;102301.70;115855;1209;62732;-77
2021/04/14 09:48:46;;;;;;;4.73;0.90;;;;;;;6.34;64.18;102314.05;115874;1209;62376;-77
2021/04/14 09:51:18;;;;;;;1.23;0.70;;;;;;;5.78;65.44;102321.38;115795;1209;62339;-76
2021/04/14 09:53:47;;;;;;;1.30;0.60;;;;;;;5.32;67.45;102333.19;115865;1209;62183;-77
2021/04/14 09:56:21;;;;;;;2.80;0.90;;;;;;;4.94;67.56;102314.63;115806;1209;62141;-77
2021/04/14 09:59:05;;;;;;;2.37;1.03;;;;;;;4.70;67.12;102312.61;115875;1209;62610;-78
2021/04/14 10:01:34;;;;;;;2.65;1.20;;;;;;;4.67;67.62;102303.11;115883;1209;62175;-77
2021/04/14 10:04:08;;;;;;;3.20;1.10;;;;;;;4.72;67.53;102300.22;115899;1209;63044;-76
2021/04/14 10:06:35;;;;;;;4.93;1.23;;;;;;;4.83;68.35;102289.02;115826;1209;64128;-76
2021/04/14 10:09:09;;;;;;;3.53;1.30;;;;;;;4.97;68.14;102298.63;115901;1209;62488;-76
2021/04/14 10:11:39;;;;;;;3.63;1.23;;;;;;;5.09;68.11;102282.06;115873;1209;63408;-76
2021/04/14 10:14:24;;;;;;;3.23;0.97;;;;;;;5.25;66.92;102282.75;115881;1209;62173;-76
2021/04/14 10:17:03;;;;;;;1.80;0.93;;;;;;;5.46;66.26;102282.26;115859;1209;62956;-76
2021/04/14 10:19:33;;;;;;;1.20;0.60;;;;;;;5.62;65.89;102279.45;115814;1209;62403;-77
2021/04/14 10:22:05;;;;;;;3.40;1.00;;;;;;;5.70;64.42;102272.72;115824;1209;62414;-76
2021/04/14 10:24:32;;;;;;;2.03;1.03;;;;;;;5.89;64.90;102267.04;115895;1209;62182;-77
2021/04/14 10:27:06;;;;;;;1.90;0.73;;;;;;;6.13;65.43;102275.05;115872;1209;62221;-77
2021/04/14 10:29:41;;;;;;;4.60;1.10;;;;;;;6.46;65.69;102264.88;115865;1209;62838;-76
2021/04/14 10:32:21;;;;;;;4.53;1.10;;;;;;;6.97;66.30;102258.58;115887;1209;62448;-77
2021/04/14 10:34:48;;;;;;;3.47;0.90;;;;;;;7.39;65.64;102258.98;115912;1209;62413;-76
2021/04/14 10:37:21;;;;;;;6.40;1.63;;;;;;;7.63;62.20;102256.27;115927;1209;62634;-76
2021/04/14 10:39:50;;;;;;;2.00;0.77;;;;;;;7.83;56.87;102246.83;115810;1209;62208;-77
2021/04/14 10:42:20;;;;;;;3.70;1.05;;;;;;;7.94;54.55;102246.83;115834;1209;62915;-77
2021/04/14 10:44:48;;;;;;;6.00;1.30;;;;;;;8.12;54.78;102234.83;115727;1209;62380;-75
2021/04/14 10:47:32;;;;;;;2.20;0.40;;;;;;;8.24;49.10;102235.64;115850;1209;63201;-75
2021/04/14 10:50:28;;;;;;;3.03;0.67;;;;;;;8.42;48.30;102230.73;115752;1209;62518;-75
2021/04/14 10:53:00;;;;;;;2.10;0.30;;;;;;;8.51;47.69;102235.28;115838;1209;64106;-75
2021/04/14 10:55:33;;;;;;;4.00;0.70;;;;;;;8.49;47.46;102239.84;115850;1209;62883;-75
2021/04/14 10:58:02;;;;;;;1.00;0.27;;;;;;;8.68;49.01;102233.08;115847;1209;62575;-75
2021/04/14 11:00:33;;;;;;;3.23;0.60;;;;;;;8.78;45.98;102229.56;115869;1209;63968;-76
2021/04/14 11:03:22;;;;;;;1.23;0.43;;;;;;;8.75;43.75;102229.80;115844;1209;62317;-75
2021/04/14 11:05:53;;;;;;;6.50;1.33;;;;;;;8.67;45.18;102226.09;115890;1209;62223;-76
2021/04/14 11:08:21;;;;;;;1.15;0.40;;;;;;;8.72;45.30;102221.28;115804;1209;64151;-77
2021/04/14 11:10:49;;;;;;;3.00;0.80;;;;;;;8.93;46.08;102216.88;115831;1209;62416;-77
2021/04/14 11:13:23;;;;;;;1.37;0.40;;;;;;;9.12;44.26;102207.41;115391;1209;64307;-77
2021/04/14 11:15:51;;;;;;;2.70;0.60;;;;;;;8.96;43.65;102219.25;115899;1209;62340;-76
2021/04/14 11:18:29;;;;;;;2.73;0.50;;;;;;;8.77;44.56;102222.57;115848;1209;62155;-77
2021/04/14 11:23:37;;;;;;;1.73;0.37;;;;;;;8.54;45.80;102216.53;115837;1209;62411;-77
2021/04/14 11:26:10;;;;;;;2.00;0.53;;;;;;;8.64;45.28;102213.13;115911;1209;62829;-77
2021/04/14 11:28:54;;;;;;;0.70;0.35;;;;;;;8.74;42.66;102206.13;115922;1209;62151;-76
2021/04/14 11:31:47;;;;;;;1.03;0.43;;;;;;;9.05;43.31;102203.58;115874;1209;61828;-76
2021/04/14 11:34:23;;;;;;;2.43;0.50;;;;;;;9.37;42.61;102203.52;115847;1209;62885;-76
2021/04/14 11:36:53;;;;;;;5.17;0.63;;;;;;;9.68;43.61;102188.50;115865;1209;62337;-76
2021/04/14 11:39:20;;;;;;;3.60;0.50;;;;;;;10.05;42.43;102192.41;115880;1209;63474;-76
2021/04/14 11:42:01;;;;;;;2.53;0.40;;;;;;;10.09;38.25;102191.16;115911;1209;62362;-76
2021/04/14 11:44:41;;;;;;;2.40;0.53;;;;;;;9.92;41.11;102187.34;115892;1209;62332;-77
2021/04/14 11:47:20;;;;;;;3.07;0.57;;;;;;;9.74;42.33;102195.09;115843;1209;63743;-76
2021/04/14 11:49:47;;;;;;;4.63;0.70;;;;;;;9.42;42.76;102205.80;115815;1209;62267;-77